Boyes, Montana
Current Conditions -  °F | °C
As of 5:15 PM on Tuesday 25 Nov 2014 (Local Time) from KSPF Reporting Station
Few Clouds Few Clouds  
Wind Chill: -6°   Ceiling: Unl
Heat Index:   Visibility: 10mi
Dew Point: -4°   Wind: 15mph
Humidity: 75%   Direction: 280°W
Pressure: 29.87"   Gusts: 25mph
Location:  45.27°N, 105.03°W
Report Text: KSPF 260015Z AUTO 28013G22KT 10SM FEW065 00/M04 A2987 RMK AO2
Loading
Personal Weather Stations






























Interactive Weather Map New forecast layout! Learn more

10-Day Weather Forecast

Advertisements
Track Severe Weather on mobile